createdAt,value
2022-10-28T00:02:31.381Z,94.43
2022-10-28T00:05:34.893Z,94.39
2022-10-28T00:08:39.027Z,93.88
2022-10-28T00:11:41.755Z,94.07
2022-10-28T00:14:44.152Z,93.98
2022-10-28T00:17:46.555Z,93.90
2022-10-28T00:20:48.935Z,94.24
2022-10-28T00:23:51.470Z,94.04
2022-10-28T00:26:53.776Z,93.67
2022-10-28T00:29:56.956Z,93.73
2022-10-28T00:32:59.336Z,94.22
2022-10-28T00:36:29.029Z,93.44
2022-10-28T00:39:31.473Z,93.23
2022-10-28T00:42:33.844Z,94.18
2022-10-28T00:45:36.212Z,94.38
2022-10-28T00:48:41.302Z,94.66
2022-10-28T00:51:44.556Z,94.55
2022-10-28T00:54:47.595Z,94.08
2022-10-28T00:57:52.095Z,93.81
2022-10-28T01:00:55.778Z,93.05
2022-10-28T01:03:58.321Z,93.73
2022-10-28T01:07:01.912Z,92.40
2022-10-28T01:10:04.529Z,92.70
2022-10-28T01:13:14.580Z,93.10
2022-10-28T01:17:02.830Z,91.95
2022-10-28T01:20:41.777Z,92.15
2022-10-28T01:24:15.838Z,92.41
2022-10-28T01:27:44.576Z,92.97
2022-10-28T01:31:04.870Z,93.22
2022-10-28T01:34:12.621Z,93.17
2022-10-28T01:37:19.998Z,92.34
2022-10-28T01:40:43.871Z,93.20
2022-10-28T01:44:13.145Z,93.27
2022-10-28T01:47:40.329Z,92.69
2022-10-28T01:50:51.393Z,92.22
2022-10-28T01:53:55.701Z,92.98
2022-10-28T01:56:58.826Z,93.08
2022-10-28T02:00:01.898Z,93.25
2022-10-28T02:03:16.586Z,93.09
2022-10-28T02:06:21.301Z,91.34
2022-10-28T02:10:02.751Z,91.93
2022-10-28T02:13:11.797Z,92.62
2022-10-28T02:16:23.604Z,92.65
2022-10-28T02:19:37.460Z,91.66
2022-10-28T02:22:39.831Z,91.07
2022-10-28T02:25:56.252Z,91.81
2022-10-28T02:29:13.708Z,91.70
2022-10-28T02:32:20.042Z,92.30
2022-10-28T02:35:43.640Z,92.03
2022-10-28T02:38:49.100Z,92.21
2022-10-28T02:42:11.175Z,91.43
2022-10-28T02:45:19.768Z,91.57
2022-10-28T02:48:26.750Z,92.05
2022-10-28T02:51:35.046Z,91.97
2022-10-28T02:54:58.787Z,92.22
2022-10-28T02:58:01.272Z,92.12
2022-10-28T03:01:03.678Z,91.67
2022-10-28T03:04:06.380Z,92.41
2022-10-28T03:07:08.722Z,92.20
2022-10-28T03:10:11.297Z,91.89
2022-10-28T03:13:13.616Z,91.93
2022-10-28T03:16:15.967Z,92.04
2022-10-28T03:19:18.329Z,92.41
2022-10-28T03:22:20.740Z,92.32
2022-10-28T03:25:23.092Z,91.81
2022-10-28T03:28:25.424Z,92.24
2022-10-28T03:31:27.892Z,92.25
2022-10-28T03:34:30.893Z,91.88
2022-10-28T03:37:33.840Z,92.77
2022-10-28T03:40:36.967Z,92.24
2022-10-28T03:43:39.731Z,92.94
2022-10-28T03:46:42.165Z,92.44
2022-10-28T03:49:44.663Z,92.29
2022-10-28T03:52:47.121Z,92.45
2022-10-28T03:55:57.359Z,92.32
2022-10-28T03:59:00.577Z,92.11
2022-10-28T04:02:03.141Z,92.09
2022-10-28T04:05:05.890Z,92.11
2022-10-28T04:08:09.085Z,92.08
2022-10-28T04:11:12.520Z,92.29
2022-10-28T04:14:15.625Z,92.75
2022-10-28T04:17:17.969Z,93.60
2022-10-28T04:20:20.487Z,94.13
2022-10-28T04:23:22.944Z,94.41
2022-10-28T04:26:25.457Z,94.25
2022-10-28T04:29:29.222Z,94.37
2022-10-28T04:32:32.267Z,94.08
2022-10-28T04:35:34.739Z,94.09
2022-10-28T04:38:37.351Z,93.26
2022-10-28T04:41:40.046Z,92.20
2022-10-28T04:44:42.473Z,93.54
2022-10-28T04:47:44.864Z,93.85
2022-10-28T04:50:47.899Z,94.16
2022-10-28T04:53:50.855Z,94.57
2022-10-28T04:56:55.585Z,94.70
2022-10-28T04:59:58.499Z,94.15
2022-10-28T05:03:02.481Z,93.96
2022-10-28T05:06:05.293Z,93.55
2022-10-28T05:09:07.980Z,93.02
2022-10-28T05:12:10.485Z,93.59
2022-10-28T05:15:14.376Z,93.62
2022-10-28T05:18:17.157Z,93.08
2022-10-28T05:21:19.643Z,93.44
2022-10-28T05:24:22.233Z,93.54
2022-10-28T05:27:24.770Z,92.88
2022-10-28T05:30:28.074Z,93.32
2022-10-28T05:33:30.569Z,93.31
2022-10-28T05:36:33.148Z,93.19
2022-10-28T05:39:35.964Z,92.93
2022-10-28T05:42:42.590Z,92.05
2022-10-28T05:45:45.222Z,92.25
2022-10-28T05:48:47.915Z,92.19
2022-10-28T05:51:50.438Z,92.24
2022-10-28T05:54:52.855Z,92.07
2022-10-28T05:57:56.374Z,92.17
2022-10-28T06:00:59.731Z,92.72
2022-10-28T06:04:02.640Z,92.39
2022-10-28T06:07:05.353Z,91.04
2022-10-28T06:10:09.315Z,90.59
2022-10-28T06:13:15.292Z,89.71
2022-10-28T06:16:17.662Z,90.41
2022-10-28T06:19:20.098Z,90.40
2022-10-28T06:22:22.492Z,90.36
2022-10-28T06:25:25.471Z,90.87
2022-10-28T06:28:28.831Z,91.19
2022-10-28T06:31:31.939Z,90.65
2022-10-28T06:34:34.370Z,90.95
2022-10-28T06:37:36.805Z,92.35
2022-10-28T06:40:39.345Z,92.98
2022-10-28T06:43:41.719Z,92.99
2022-10-28T06:46:45.685Z,93.07
2022-10-28T06:49:49.556Z,93.00
2022-10-28T06:52:53.391Z,92.95
2022-10-28T06:55:57.146Z,92.47
2022-10-28T06:58:59.699Z,92.59
2022-10-28T07:02:02.992Z,92.49
2022-10-28T07:05:07.224Z,92.55
2022-10-28T07:08:10.139Z,90.73
2022-10-28T07:11:12.601Z,90.50
2022-10-28T07:14:15.050Z,91.37
2022-10-28T07:17:17.796Z,92.63
2022-10-28T07:20:20.826Z,89.91
2022-10-28T07:23:23.223Z,90.27
2022-10-28T07:26:26.285Z,90.12
2022-10-28T07:29:28.642Z,90.83
2022-10-28T07:32:34.992Z,91.04
2022-10-28T07:35:39.008Z,89.60
2022-10-28T07:38:43.430Z,90.90
2022-10-28T07:41:47.651Z,91.98
2022-10-28T07:44:50.107Z,92.21
2022-10-28T07:47:52.883Z,91.21
2022-10-28T07:50:55.469Z,91.96
2022-10-28T07:53:58.037Z,91.19
2022-10-28T07:57:00.468Z,91.43
2022-10-28T08:00:04.187Z,92.29
2022-10-28T08:03:12.819Z,92.05
2022-10-28T08:06:20.361Z,92.53
2022-10-28T08:09:22.760Z,92.01
2022-10-28T08:12:25.287Z,91.87
2022-10-28T08:15:28.880Z,92.08
2022-10-28T08:18:31.881Z,92.34
2022-10-28T08:21:34.333Z,91.40
2022-10-28T08:24:36.821Z,92.01
2022-10-28T08:27:40.678Z,91.47
2022-10-28T08:30:57.207Z,91.30
2022-10-28T08:34:06.492Z,91.13
2022-10-28T08:37:09.385Z,91.64
2022-10-28T08:40:14.991Z,92.23
2022-10-28T08:43:57.036Z,91.77
2022-10-28T08:47:18.624Z,91.67
2022-10-28T08:50:23.670Z,92.08
2022-10-28T08:53:29.554Z,91.79
2022-10-28T08:56:35.866Z,91.59
2022-10-28T08:59:40.474Z,92.14
2022-10-28T09:03:11.728Z,91.73
2022-10-28T09:06:14.341Z,90.85
2022-10-28T09:09:21.895Z,89.14
2022-10-28T09:12:42.685Z,90.38
2022-10-28T09:15:56.012Z,91.43
2022-10-28T09:19:04.117Z,91.19
2022-10-28T09:22:13.744Z,91.47
2022-10-28T09:25:39.549Z,91.07
2022-10-28T09:28:47.740Z,91.62
2022-10-28T09:31:57.904Z,89.17
2022-10-28T09:35:06.444Z,89.07
2022-10-28T09:38:16.348Z,89.76
2022-10-28T09:41:21.852Z,87.41
2022-10-28T09:44:39.479Z,86.02
2022-10-28T09:47:44.986Z,86.34
2022-10-28T09:50:50.592Z,87.22
2022-10-28T09:54:00.489Z,86.21
2022-10-28T09:57:03.784Z,88.50
2022-10-28T10:00:17.907Z,89.62
2022-10-28T10:03:21.439Z,90.79
2022-10-28T10:06:35.601Z,90.70
2022-10-28T10:09:39.170Z,91.12
2022-10-28T10:12:41.922Z,91.75
2022-10-28T10:15:51.455Z,92.35
2022-10-28T10:18:57.311Z,92.69
2022-10-28T10:21:59.707Z,92.48
2022-10-28T10:25:03.391Z,92.00
2022-10-28T10:28:14.919Z,91.64
2022-10-28T10:31:27.290Z,92.02
2022-10-28T10:34:30.673Z,89.02
2022-10-28T10:37:36.628Z,89.57
2022-10-28T10:40:48.954Z,89.55
2022-10-28T10:43:51.291Z,89.50
2022-10-28T10:47:04.904Z,89.76
2022-10-28T10:53:39.945Z,87.50
2022-10-28T10:56:43.017Z,86.99
2022-10-28T10:59:47.463Z,86.38
2022-10-28T11:02:53.524Z,86.63
2022-10-28T11:06:22.110Z,89.81
2022-10-28T11:09:35.557Z,90.37
2022-10-28T11:12:41.184Z,90.37
2022-10-28T11:15:43.518Z,89.34
2022-10-28T11:18:48.443Z,89.07
2022-10-28T11:22:12.528Z,90.91
2022-10-28T11:25:43.208Z,90.89
2022-10-28T11:29:01.662Z,91.32
2022-10-28T11:32:17.312Z,91.18
2022-10-28T11:35:23.786Z,91.73
2022-10-28T11:38:45.711Z,91.30
2022-10-28T11:42:02.263Z,90.42
2022-10-28T11:45:18.690Z,88.11
2022-10-28T11:48:24.087Z,87.93
2022-10-28T11:51:48.296Z,87.40
2022-10-28T11:55:04.063Z,87.82
2022-10-28T11:58:21.200Z,86.91
2022-10-28T12:01:29.868Z,86.58
2022-10-28T12:05:02.978Z,86.77
2022-10-28T12:08:27.736Z,85.58
2022-10-28T12:11:42.152Z,84.30
2022-10-28T12:14:44.512Z,84.71
2022-10-28T12:17:59.224Z,84.55
2022-10-28T12:21:17.208Z,85.39
2022-10-28T12:24:21.474Z,85.26
2022-10-28T12:27:27.812Z,85.88
2022-10-28T12:30:38.706Z,87.89
2022-10-28T12:33:45.872Z,87.04
2022-10-28T12:36:50.840Z,86.77
2022-10-28T12:40:17.377Z,86.02
2022-10-28T12:43:24.253Z,86.60
2022-10-28T12:50:16.829Z,86.43
2022-10-28T12:53:30.920Z,86.80
2022-10-28T12:56:36.979Z,85.36
2022-10-28T12:59:44.027Z,85.86
2022-10-28T13:03:01.576Z,85.95
2022-10-28T13:09:51.635Z,87.04
2022-10-28T13:13:33.099Z,87.59
2022-10-28T13:17:11.188Z,85.90
2022-10-28T13:20:19.345Z,86.58
2022-10-28T13:23:30.331Z,85.52
2022-10-28T13:26:36.728Z,86.59
2022-10-28T13:29:41.230Z,86.13
2022-10-28T13:32:44.158Z,87.14
2022-10-28T13:35:47.197Z,86.77
2022-10-28T13:38:54.727Z,87.47
2022-10-28T13:42:23.173Z,86.10
2022-10-28T13:45:44.143Z,84.47
2022-10-28T13:48:47.913Z,84.81
2022-10-28T13:51:51.968Z,84.57
2022-10-28T13:54:59.174Z,85.05
2022-10-28T13:58:04.689Z,85.32
2022-10-28T14:01:44.410Z,85.46
2022-10-28T14:05:02.490Z,85.52
2022-10-28T14:08:17.302Z,85.37
2022-10-28T14:11:24.152Z,85.38
2022-10-28T14:14:26.535Z,86.08
2022-10-28T14:17:37.357Z,85.69
2022-10-28T14:21:01.684Z,85.64
2022-10-28T14:24:04.238Z,86.16
2022-10-28T14:27:08.717Z,85.95
2022-10-28T14:30:17.243Z,85.34
2022-10-28T14:33:21.089Z,86.14
2022-10-28T14:36:38.033Z,85.45
2022-10-28T14:39:45.572Z,85.79
2022-10-28T14:43:16.013Z,86.02
2022-10-28T14:46:46.262Z,85.83
2022-10-28T14:50:00.686Z,85.77
2022-10-28T14:53:06.101Z,85.59
2022-10-28T14:56:27.886Z,85.75
2022-10-28T14:59:35.831Z,87.04
2022-10-28T15:02:38.886Z,88.05
2022-10-28T15:05:41.352Z,86.86
2022-10-28T15:08:44.203Z,86.22
2022-10-28T15:11:50.763Z,87.23
2022-10-28T15:14:58.114Z,85.95
2022-10-28T15:18:00.888Z,86.02
2022-10-28T15:21:11.116Z,86.00
2022-10-28T15:24:13.786Z,85.76
2022-10-28T15:27:16.275Z,85.91
2022-10-28T15:30:23.849Z,86.08
2022-10-28T15:33:37.034Z,86.59
2022-10-28T15:36:39.554Z,86.97
2022-10-28T15:39:41.957Z,87.09
2022-10-28T15:42:53.606Z,86.50
2022-10-28T15:46:15.439Z,86.89
2022-10-28T15:49:55.650Z,87.33
2022-10-28T15:53:07.077Z,87.62
2022-10-28T15:56:15.318Z,87.74
2022-10-28T15:59:21.696Z,88.07
2022-10-28T16:02:41.048Z,87.22
2022-10-28T16:05:44.978Z,87.19
2022-10-28T16:08:48.297Z,87.73
2022-10-28T16:11:53.345Z,87.54
2022-10-28T16:14:59.460Z,87.80
2022-10-28T16:18:01.991Z,87.78
2022-10-28T16:21:04.713Z,87.24
2022-10-28T16:24:09.159Z,87.58
2022-10-28T16:27:32.868Z,87.63
2022-10-28T16:30:35.297Z,87.27
2022-10-28T16:33:38.447Z,87.90
2022-10-28T16:36:40.779Z,88.40
2022-10-28T16:39:43.319Z,88.49
2022-10-28T16:42:48.759Z,88.47
2022-10-28T16:45:52.796Z,88.49
2022-10-28T16:48:55.181Z,89.00
2022-10-28T16:51:57.962Z,88.85
2022-10-28T16:55:00.553Z,88.23
2022-10-28T16:58:03.062Z,88.93
2022-10-28T17:01:05.838Z,88.66
2022-10-28T17:04:08.997Z,88.47
2022-10-28T17:07:16.125Z,87.53
2022-10-28T17:10:18.942Z,88.66
2022-10-28T17:13:21.449Z,88.79
2022-10-28T17:16:23.875Z,89.30
2022-10-28T17:19:26.923Z,89.64
2022-10-28T17:22:30.992Z,89.23
2022-10-28T17:25:34.268Z,89.11
2022-10-28T17:28:36.969Z,88.38
2022-10-28T17:31:39.397Z,89.07
2022-10-28T17:34:41.814Z,89.19
2022-10-28T17:37:44.269Z,89.80
2022-10-28T17:40:54.762Z,88.99
2022-10-28T17:43:57.445Z,88.66
2022-10-28T17:47:01.092Z,89.06
2022-10-28T17:50:04.075Z,88.66
2022-10-28T17:53:06.460Z,89.00
2022-10-28T17:56:09.765Z,89.16
2022-10-28T17:59:12.470Z,89.25
2022-10-28T18:02:15.047Z,88.54
2022-10-28T18:05:17.557Z,88.71
2022-10-28T18:08:20.784Z,88.70
2022-10-28T18:11:23.114Z,88.08
2022-10-28T18:14:25.584Z,89.13
2022-10-28T18:17:29.337Z,89.02
2022-10-28T18:20:32.537Z,89.63
2022-10-28T18:23:35.639Z,89.27
2022-10-28T18:26:38.814Z,89.12
2022-10-28T18:29:41.524Z,88.54
2022-10-28T18:32:43.891Z,88.53
2022-10-28T18:38:54.919Z,90.63
2022-10-28T18:41:58.805Z,90.63
2022-10-28T18:45:02.727Z,90.79
2022-10-28T18:48:06.676Z,90.75
2022-10-28T18:51:13.542Z,91.33
2022-10-28T18:54:18.079Z,91.31
2022-10-28T18:57:22.107Z,91.04
2022-10-28T19:00:24.582Z,88.87
2022-10-28T19:03:27.294Z,90.01
2022-10-28T19:06:32.610Z,89.29
2022-10-28T19:09:36.136Z,89.38
2022-10-28T19:12:42.857Z,90.40
2022-10-28T19:15:47.737Z,90.96
2022-10-28T19:18:57.317Z,91.75
2022-10-28T19:22:01.276Z,91.81
2022-10-28T19:25:04.789Z,91.65
2022-10-28T19:28:07.232Z,91.62
2022-10-28T19:31:14.175Z,91.16
2022-10-28T19:34:16.541Z,91.92
2022-10-28T19:37:19.013Z,91.83
2022-10-28T19:40:21.359Z,91.77
2022-10-28T19:43:23.813Z,91.34
2022-10-28T19:46:30.963Z,90.49
2022-10-28T19:49:39.292Z,89.73
2022-10-28T19:52:44.386Z,89.94
2022-10-28T19:55:48.929Z,90.97
2022-10-28T19:58:54.341Z,90.66
2022-10-28T20:01:56.779Z,91.47
2022-10-28T20:04:59.226Z,91.29
2022-10-28T20:08:01.816Z,91.48
2022-10-28T20:11:06.919Z,92.33
2022-10-28T20:14:12.383Z,92.46
2022-10-28T20:17:15.447Z,92.27
2022-10-28T20:20:18.212Z,92.62
2022-10-28T20:23:20.629Z,91.81
2022-10-28T20:26:28.247Z,92.64
2022-10-28T20:29:31.202Z,92.32
2022-10-28T20:32:34.861Z,92.22
2022-10-28T20:35:38.550Z,92.31
2022-10-28T20:38:41.647Z,92.13
2022-10-28T20:41:45.927Z,91.73
2022-10-28T20:44:48.281Z,91.21
2022-10-28T20:47:52.783Z,90.78
2022-10-28T20:50:57.066Z,90.38
2022-10-28T20:53:59.717Z,90.46
2022-10-28T20:57:02.115Z,91.28
2022-10-28T21:00:06.375Z,90.42
2022-10-28T21:03:11.649Z,91.00
2022-10-28T21:06:15.632Z,90.55
2022-10-28T21:09:18.240Z,91.94
2022-10-28T21:12:20.575Z,91.73
2022-10-28T21:15:22.991Z,91.25
2022-10-28T21:18:25.619Z,90.51
2022-10-28T21:21:31.877Z,91.42
2022-10-28T21:24:34.275Z,92.02
2022-10-28T21:27:36.619Z,92.03
2022-10-28T21:30:39.001Z,92.56
2022-10-28T21:33:42.414Z,92.17
2022-10-28T21:36:44.889Z,92.11
2022-10-28T21:39:55.069Z,92.24
2022-10-28T21:42:59.555Z,92.46
2022-10-28T21:46:02.108Z,93.01
2022-10-28T21:49:05.379Z,92.27
2022-10-28T21:52:08.704Z,92.20
2022-10-28T21:55:20.477Z,90.71
2022-10-28T21:58:36.332Z,90.49
2022-10-28T22:01:38.785Z,92.28
2022-10-28T22:04:41.258Z,92.53
2022-10-28T22:07:43.693Z,92.80
2022-10-28T22:10:46.112Z,92.42
2022-10-28T22:13:55.637Z,92.77
2022-10-28T22:16:57.995Z,92.58
2022-10-28T22:20:00.450Z,92.64
2022-10-28T22:23:02.959Z,93.20
2022-10-28T22:26:07.330Z,93.55
2022-10-28T22:29:09.731Z,93.78
2022-10-28T22:32:12.074Z,93.64
2022-10-28T22:35:14.525Z,93.00
2022-10-28T22:38:16.873Z,93.16
2022-10-28T22:41:30.384Z,93.34
2022-10-28T22:44:32.711Z,93.08
2022-10-28T22:47:35.150Z,93.00
2022-10-28T22:50:37.606Z,93.27
2022-10-28T22:53:40.654Z,92.71
2022-10-28T22:56:45.868Z,93.17
2022-10-28T22:59:48.873Z,93.45
2022-10-28T23:02:51.300Z,92.89
2022-10-28T23:05:54.985Z,93.76
2022-10-28T23:08:58.979Z,93.61
2022-10-28T23:12:01.858Z,93.55
2022-10-28T23:15:05.363Z,94.01
2022-10-28T23:18:08.292Z,93.57
2022-10-28T23:21:12.623Z,93.76
2022-10-28T23:24:15.023Z,94.28
2022-10-28T23:27:17.463Z,94.20
2022-10-28T23:30:19.880Z,94.10
2022-10-28T23:33:22.312Z,93.42
2022-10-28T23:36:25.888Z,93.64
2022-10-28T23:39:30.957Z,94.10
2022-10-28T23:42:33.717Z,94.01
2022-10-28T23:45:36.018Z,93.92
2022-10-28T23:48:38.558Z,93.96
2022-10-28T23:51:40.974Z,94.42
2022-10-28T23:54:43.341Z,94.08
2022-10-28T23:57:45.719Z,94.29
